sensor_id;sensor_type;location;lat;lon;timestamp;P1;durP1;ratioP1;P2;durP2;ratioP2
34783;SDS011;20998;51.388;7.032;2023-04-25T00:01:30;11.40;;;3.73;;
34783;SDS011;20998;51.388;7.032;2023-04-25T00:03:58;9.60;;;3.23;;
34783;SDS011;20998;51.388;7.032;2023-04-25T00:06:26;6.17;;;2.93;;
34783;SDS011;20998;51.388;7.032;2023-04-25T00:08:52;5.83;;;2.63;;
34783;SDS011;20998;51.388;7.032;2023-04-25T00:11:19;9.37;;;2.20;;
34783;SDS011;20998;51.388;7.032;2023-04-25T00:13:45;13.10;;;2.87;;
34783;SDS011;20998;51.388;7.032;2023-04-25T00:16:11;10.70;;;3.73;;
34783;SDS011;20998;51.388;7.032;2023-04-25T00:18:39;12.93;;;2.80;;
34783;SDS011;20998;51.388;7.032;2023-04-25T00:21:05;10.37;;;2.97;;
34783;SDS011;20998;51.388;7.032;2023-04-25T00:23:31;13.90;;;2.87;;
34783;SDS011;20998;51.388;7.032;2023-04-25T00:25:57;7.60;;;2.83;;
34783;SDS011;20998;51.388;7.032;2023-04-25T00:28:23;5.50;;;2.47;;
34783;SDS011;20998;51.388;7.032;2023-04-25T00:30:49;5.80;;;2.53;;
34783;SDS011;20998;51.388;7.032;2023-04-25T00:33:15;5.90;;;2.27;;
34783;SDS011;20998;51.388;7.032;2023-04-25T00:35:41;5.03;;;2.47;;
34783;SDS011;20998;51.388;7.032;2023-04-25T00:38:07;4.60;;;2.23;;
34783;SDS011;20998;51.388;7.032;2023-04-25T00:40:33;11.43;;;2.90;;
34783;SDS011;20998;51.388;7.032;2023-04-25T00:42:59;3.73;;;2.10;;
34783;SDS011;20998;51.388;7.032;2023-04-25T00:45:28;2.73;;;1.60;;
34783;SDS011;20998;51.388;7.032;2023-04-25T00:47:54;3.93;;;2.30;;
34783;SDS011;20998;51.388;7.032;2023-04-25T00:50:21;9.27;;;3.13;;
34783;SDS011;20998;51.388;7.032;2023-04-25T00:52:47;5.03;;;1.63;;
34783;SDS011;20998;51.388;7.032;2023-04-25T00:55:12;10.10;;;2.23;;
34783;SDS011;20998;51.388;7.032;2023-04-25T00:57:40;7.47;;;2.20;;
34783;SDS011;20998;51.388;7.032;2023-04-25T01:00:07;8.60;;;2.37;;
34783;SDS011;20998;51.388;7.032;2023-04-25T01:02:34;8.83;;;2.97;;
34783;SDS011;20998;51.388;7.032;2023-04-25T01:05:00;6.57;;;2.40;;
34783;SDS011;20998;51.388;7.032;2023-04-25T01:07:26;10.27;;;2.67;;
34783;SDS011;20998;51.388;7.032;2023-04-25T01:09:52;10.30;;;2.93;;
34783;SDS011;20998;51.388;7.032;2023-04-25T01:12:18;9.47;;;3.20;;
34783;SDS011;20998;51.388;7.032;2023-04-25T01:14:44;8.70;;;3.00;;
34783;SDS011;20998;51.388;7.032;2023-04-25T01:17:11;7.43;;;2.67;;
34783;SDS011;20998;51.388;7.032;2023-04-25T01:19:37;6.00;;;2.67;;
34783;SDS011;20998;51.388;7.032;2023-04-25T01:22:03;11.97;;;3.13;;
34783;SDS011;20998;51.388;7.032;2023-04-25T01:24:31;6.37;;;3.13;;
34783;SDS011;20998;51.388;7.032;2023-04-25T01:26:58;6.10;;;3.33;;
34783;SDS011;20998;51.388;7.032;2023-04-25T01:29:25;5.27;;;2.43;;
34783;SDS011;20998;51.388;7.032;2023-04-25T01:31:51;4.00;;;2.57;;
34783;SDS011;20998;51.388;7.032;2023-04-25T01:34:18;10.00;;;2.80;;
34783;SDS011;20998;51.388;7.032;2023-04-25T01:36:44;4.33;;;2.57;;
34783;SDS011;20998;51.388;7.032;2023-04-25T01:39:10;10.00;;;3.20;;
34783;SDS011;20998;51.388;7.032;2023-04-25T01:41:36;8.53;;;1.83;;
34783;SDS011;20998;51.388;7.032;2023-04-25T01:44:02;5.57;;;2.67;;
34783;SDS011;20998;51.388;7.032;2023-04-25T01:46:29;3.77;;;2.30;;
34783;SDS011;20998;51.388;7.032;2023-04-25T01:48:55;6.33;;;2.70;;
34783;SDS011;20998;51.388;7.032;2023-04-25T01:51:21;6.13;;;3.13;;
34783;SDS011;20998;51.388;7.032;2023-04-25T01:53:47;6.13;;;3.27;;
34783;SDS011;20998;51.388;7.032;2023-04-25T01:56:13;5.90;;;2.90;;
34783;SDS011;20998;51.388;7.032;2023-04-25T01:58:39;11.93;;;3.43;;
34783;SDS011;20998;51.388;7.032;2023-04-25T02:01:05;8.77;;;2.60;;
34783;SDS011;20998;51.388;7.032;2023-04-25T02:03:31;6.43;;;2.80;;
34783;SDS011;20998;51.388;7.032;2023-04-25T02:05:58;7.87;;;2.40;;
34783;SDS011;20998;51.388;7.032;2023-04-25T02:08:24;11.27;;;3.10;;
34783;SDS011;20998;51.388;7.032;2023-04-25T02:10:51;5.97;;;2.90;;
34783;SDS011;20998;51.388;7.032;2023-04-25T02:13:17;12.57;;;2.93;;
34783;SDS011;20998;51.388;7.032;2023-04-25T02:15:43;9.20;;;3.40;;
34783;SDS011;20998;51.388;7.032;2023-04-25T02:18:09;10.33;;;2.87;;
34783;SDS011;20998;51.388;7.032;2023-04-25T02:20:36;7.57;;;2.40;;
34783;SDS011;20998;51.388;7.032;2023-04-25T02:23:02;17.17;;;3.00;;
34783;SDS011;20998;51.388;7.032;2023-04-25T02:25:28;10.53;;;3.23;;
34783;SDS011;20998;51.388;7.032;2023-04-25T02:27:54;11.37;;;3.10;;
34783;SDS011;20998;51.388;7.032;2023-04-25T02:30:20;4.53;;;2.30;;
34783;SDS011;20998;51.388;7.032;2023-04-25T02:32:46;4.70;;;2.27;;
34783;SDS011;20998;51.388;7.032;2023-04-25T02:35:12;11.57;;;3.57;;
34783;SDS011;20998;51.388;7.032;2023-04-25T02:37:38;15.53;;;3.50;;
34783;SDS011;20998;51.388;7.032;2023-04-25T02:40:04;4.50;;;2.17;;
34783;SDS011;20998;51.388;7.032;2023-04-25T02:42:31;5.37;;;2.60;;
34783;SDS011;20998;51.388;7.032;2023-04-25T02:44:57;12.17;;;2.63;;
34783;SDS011;20998;51.388;7.032;2023-04-25T02:47:23;17.70;;;3.33;;
34783;SDS011;20998;51.388;7.032;2023-04-25T02:49:49;9.60;;;3.23;;
34783;SDS011;20998;51.388;7.032;2023-04-25T02:52:15;10.47;;;3.30;;
34783;SDS011;20998;51.388;7.032;2023-04-25T02:54:41;3.83;;;2.63;;
34783;SDS011;20998;51.388;7.032;2023-04-25T02:57:07;6.43;;;2.77;;
34783;SDS011;20998;51.388;7.032;2023-04-25T02:59:33;3.70;;;2.47;;
34783;SDS011;20998;51.388;7.032;2023-04-25T03:01:59;11.83;;;3.83;;
34783;SDS011;20998;51.388;7.032;2023-04-25T03:04:26;7.73;;;3.10;;
34783;SDS011;20998;51.388;7.032;2023-04-25T03:06:52;7.40;;;2.67;;
34783;SDS011;20998;51.388;7.032;2023-04-25T03:09:18;14.70;;;4.27;;
34783;SDS011;20998;51.388;7.032;2023-04-25T03:11:44;10.57;;;3.13;;
34783;SDS011;20998;51.388;7.032;2023-04-25T03:14:10;13.07;;;2.97;;
34783;SDS011;20998;51.388;7.032;2023-04-25T03:16:37;6.33;;;3.50;;
34783;SDS011;20998;51.388;7.032;2023-04-25T03:19:03;10.73;;;3.47;;
34783;SDS011;20998;51.388;7.032;2023-04-25T03:21:30;9.93;;;3.53;;
34783;SDS011;20998;51.388;7.032;2023-04-25T03:24:00;8.10;;;3.10;;
34783;SDS011;20998;51.388;7.032;2023-04-25T03:26:27;7.00;;;3.70;;
34783;SDS011;20998;51.388;7.032;2023-04-25T03:28:53;5.77;;;2.77;;
34783;SDS011;20998;51.388;7.032;2023-04-25T03:31:19;7.47;;;3.20;;
34783;SDS011;20998;51.388;7.032;2023-04-25T03:33:45;8.20;;;3.63;;
34783;SDS011;20998;51.388;7.032;2023-04-25T03:36:11;10.40;;;3.87;;
34783;SDS011;20998;51.388;7.032;2023-04-25T03:38:37;11.20;;;3.83;;
34783;SDS011;20998;51.388;7.032;2023-04-25T03:41:03;7.97;;;3.80;;
34783;SDS011;20998;51.388;7.032;2023-04-25T03:43:29;9.27;;;4.30;;
34783;SDS011;20998;51.388;7.032;2023-04-25T03:45:55;14.00;;;4.03;;
34783;SDS011;20998;51.388;7.032;2023-04-25T03:48:25;7.50;;;4.03;;
34783;SDS011;20998;51.388;7.032;2023-04-25T03:50:51;12.03;;;4.40;;
34783;SDS011;20998;51.388;7.032;2023-04-25T03:53:17;17.83;;;4.57;;
34783;SDS011;20998;51.388;7.032;2023-04-25T03:55:43;11.10;;;4.23;;
34783;SDS011;20998;51.388;7.032;2023-04-25T03:58:09;7.20;;;3.67;;
34783;SDS011;20998;51.388;7.032;2023-04-25T04:00:35;12.57;;;3.67;;
34783;SDS011;20998;51.388;7.032;2023-04-25T04:03:01;17.03;;;3.93;;
34783;SDS011;20998;51.388;7.032;2023-04-25T04:05:27;13.77;;;3.67;;
34783;SDS011;20998;51.388;7.032;2023-04-25T04:07:54;5.70;;;3.10;;
34783;SDS011;20998;51.388;7.032;2023-04-25T04:10:20;10.80;;;3.80;;
34783;SDS011;20998;51.388;7.032;2023-04-25T04:12:46;5.73;;;3.27;;
34783;SDS011;20998;51.388;7.032;2023-04-25T04:15:12;6.67;;;3.43;;
34783;SDS011;20998;51.388;7.032;2023-04-25T04:17:38;6.70;;;3.63;;
34783;SDS011;20998;51.388;7.032;2023-04-25T04:20:06;15.40;;;4.13;;
34783;SDS011;20998;51.388;7.032;2023-04-25T04:22:33;10.43;;;3.90;;
34783;SDS011;20998;51.388;7.032;2023-04-25T04:24:59;8.00;;;3.80;;
34783;SDS011;20998;51.388;7.032;2023-04-25T04:27:24;17.00;;;4.30;;
34783;SDS011;20998;51.388;7.032;2023-04-25T04:29:51;7.73;;;3.77;;
34783;SDS011;20998;51.388;7.032;2023-04-25T04:32:18;14.30;;;3.80;;
34783;SDS011;20998;51.388;7.032;2023-04-25T04:34:44;10.37;;;3.87;;
34783;SDS011;20998;51.388;7.032;2023-04-25T04:37:12;8.10;;;3.43;;
34783;SDS011;20998;51.388;7.032;2023-04-25T04:39:38;17.90;;;3.57;;
34783;SDS011;20998;51.388;7.032;2023-04-25T04:42:04;13.23;;;3.57;;
34783;SDS011;20998;51.388;7.032;2023-04-25T04:44:30;12.63;;;3.97;;
34783;SDS011;20998;51.388;7.032;2023-04-25T04:47:00;14.17;;;3.37;;
34783;SDS011;20998;51.388;7.032;2023-04-25T04:49:26;12.03;;;4.97;;
34783;SDS011;20998;51.388;7.032;2023-04-25T04:51:53;11.97;;;4.73;;
34783;SDS011;20998;51.388;7.032;2023-04-25T04:54:19;10.40;;;3.83;;
34783;SDS011;20998;51.388;7.032;2023-04-25T04:56:45;7.43;;;3.40;;
34783;SDS011;20998;51.388;7.032;2023-04-25T04:59:11;10.10;;;3.03;;
34783;SDS011;20998;51.388;7.032;2023-04-25T05:01:37;10.70;;;4.13;;
34783;SDS011;20998;51.388;7.032;2023-04-25T05:04:03;10.77;;;3.50;;
34783;SDS011;20998;51.388;7.032;2023-04-25T05:06:30;10.90;;;3.73;;
34783;SDS011;20998;51.388;7.032;2023-04-25T05:08:56;18.47;;;4.87;;
34783;SDS011;20998;51.388;7.032;2023-04-25T05:11:23;17.60;;;4.90;;
34783;SDS011;20998;51.388;7.032;2023-04-25T05:13:52;13.83;;;5.23;;
34783;SDS011;20998;51.388;7.032;2023-04-25T05:16:18;14.33;;;5.17;;
34783;SDS011;20998;51.388;7.032;2023-04-25T05:18:45;10.33;;;4.23;;
34783;SDS011;20998;51.388;7.032;2023-04-25T05:21:11;9.37;;;4.37;;
34783;SDS011;20998;51.388;7.032;2023-04-25T05:23:37;12.77;;;4.67;;
34783;SDS011;20998;51.388;7.032;2023-04-25T05:26:03;11.07;;;3.53;;
34783;SDS011;20998;51.388;7.032;2023-04-25T05:28:30;13.53;;;5.17;;
34783;SDS011;20998;51.388;7.032;2023-04-25T05:30:56;21.00;;;3.30;;
34783;SDS011;20998;51.388;7.032;2023-04-25T05:33:22;9.00;;;3.53;;
34783;SDS011;20998;51.388;7.032;2023-04-25T05:35:48;4.73;;;2.43;;
34783;SDS011;20998;51.388;7.032;2023-04-25T05:38:15;11.50;;;3.77;;
34783;SDS011;20998;51.388;7.032;2023-04-25T05:40:41;9.60;;;3.57;;
34783;SDS011;20998;51.388;7.032;2023-04-25T05:43:06;9.13;;;3.23;;
34783;SDS011;20998;51.388;7.032;2023-04-25T05:45:32;7.07;;;4.10;;
34783;SDS011;20998;51.388;7.032;2023-04-25T05:47:58;14.43;;;3.67;;
34783;SDS011;20998;51.388;7.032;2023-04-25T05:50:24;7.43;;;3.67;;
34783;SDS011;20998;51.388;7.032;2023-04-25T05:52:50;17.33;;;3.30;;
34783;SDS011;20998;51.388;7.032;2023-04-25T05:55:16;14.80;;;3.93;;
34783;SDS011;20998;51.388;7.032;2023-04-25T05:57:42;19.17;;;4.27;;
34783;SDS011;20998;51.388;7.032;2023-04-25T06:00:10;15.90;;;4.17;;
34783;SDS011;20998;51.388;7.032;2023-04-25T06:02:37;15.13;;;5.43;;
34783;SDS011;20998;51.388;7.032;2023-04-25T06:05:03;19.20;;;4.27;;
34783;SDS011;20998;51.388;7.032;2023-04-25T06:07:29;11.57;;;4.23;;
34783;SDS011;20998;51.388;7.032;2023-04-25T06:09:55;13.87;;;3.83;;
34783;SDS011;20998;51.388;7.032;2023-04-25T06:12:21;14.63;;;4.30;;
34783;SDS011;20998;51.388;7.032;2023-04-25T06:14:47;10.57;;;3.93;;
34783;SDS011;20998;51.388;7.032;2023-04-25T06:17:13;12.70;;;4.10;;
34783;SDS011;20998;51.388;7.032;2023-04-25T06:19:39;23.73;;;4.33;;
34783;SDS011;20998;51.388;7.032;2023-04-25T06:22:05;10.27;;;4.20;;
34783;SDS011;20998;51.388;7.032;2023-04-25T06:24:32;10.20;;;3.30;;
34783;SDS011;20998;51.388;7.032;2023-04-25T06:26:58;8.77;;;2.90;;
34783;SDS011;20998;51.388;7.032;2023-04-25T06:29:24;13.60;;;3.37;;
34783;SDS011;20998;51.388;7.032;2023-04-25T06:31:50;14.23;;;3.17;;
34783;SDS011;20998;51.388;7.032;2023-04-25T06:34:16;9.93;;;2.97;;
34783;SDS011;20998;51.388;7.032;2023-04-25T06:36:42;9.57;;;3.33;;
34783;SDS011;20998;51.388;7.032;2023-04-25T06:39:09;7.47;;;2.83;;
34783;SDS011;20998;51.388;7.032;2023-04-25T06:41:35;11.23;;;2.77;;
34783;SDS011;20998;51.388;7.032;2023-04-25T06:44:01;5.23;;;2.20;;
34783;SDS011;20998;51.388;7.032;2023-04-25T06:46:27;5.67;;;2.53;;
34783;SDS011;20998;51.388;7.032;2023-04-25T06:48:53;14.23;;;2.90;;
34783;SDS011;20998;51.388;7.032;2023-04-25T06:51:18;13.87;;;3.17;;
34783;SDS011;20998;51.388;7.032;2023-04-25T06:53:44;11.40;;;3.37;;
34783;SDS011;20998;51.388;7.032;2023-04-25T06:56:10;15.17;;;3.27;;
34783;SDS011;20998;51.388;7.032;2023-04-25T06:58:36;3.97;;;2.27;;
34783;SDS011;20998;51.388;7.032;2023-04-25T07:01:01;13.73;;;3.20;;
34783;SDS011;20998;51.388;7.032;2023-04-25T07:03:27;7.20;;;2.77;;
34783;SDS011;20998;51.388;7.032;2023-04-25T07:05:53;5.13;;;2.70;;
34783;SDS011;20998;51.388;7.032;2023-04-25T07:08:19;7.47;;;3.27;;
34783;SDS011;20998;51.388;7.032;2023-04-25T07:10:46;10.57;;;3.20;;
34783;SDS011;20998;51.388;7.032;2023-04-25T07:13:12;8.33;;;2.67;;
34783;SDS011;20998;51.388;7.032;2023-04-25T07:15:38;8.03;;;2.63;;
34783;SDS011;20998;51.388;7.032;2023-04-25T07:18:04;14.33;;;2.73;;
34783;SDS011;20998;51.388;7.032;2023-04-25T07:20:30;11.40;;;4.10;;
34783;SDS011;20998;51.388;7.032;2023-04-25T07:22:57;8.07;;;2.80;;
34783;SDS011;20998;51.388;7.032;2023-04-25T07:25:23;11.97;;;2.77;;
34783;SDS011;20998;51.388;7.032;2023-04-25T07:27:49;4.30;;;2.67;;
34783;SDS011;20998;51.388;7.032;2023-04-25T07:30:16;10.13;;;3.00;;
34783;SDS011;20998;51.388;7.032;2023-04-25T07:32:42;9.80;;;3.03;;
34783;SDS011;20998;51.388;7.032;2023-04-25T07:35:08;12.63;;;2.77;;
34783;SDS011;20998;51.388;7.032;2023-04-25T07:37:34;11.47;;;2.97;;
34783;SDS011;20998;51.388;7.032;2023-04-25T07:40:01;9.37;;;3.40;;
34783;SDS011;20998;51.388;7.032;2023-04-25T07:42:28;14.27;;;3.47;;
34783;SDS011;20998;51.388;7.032;2023-04-25T07:44:54;7.50;;;2.73;;
34783;SDS011;20998;51.388;7.032;2023-04-25T07:47:20;7.03;;;2.73;;
34783;SDS011;20998;51.388;7.032;2023-04-25T07:49:47;16.17;;;3.13;;
34783;SDS011;20998;51.388;7.032;2023-04-25T07:52:13;6.87;;;2.10;;
34783;SDS011;20998;51.388;7.032;2023-04-25T07:54:39;8.40;;;2.30;;
34783;SDS011;20998;51.388;7.032;2023-04-25T07:57:05;12.97;;;1.97;;
34783;SDS011;20998;51.388;7.032;2023-04-25T07:59:31;6.10;;;2.50;;
34783;SDS011;20998;51.388;7.032;2023-04-25T08:01:57;5.03;;;1.93;;
34783;SDS011;20998;51.388;7.032;2023-04-25T08:04:23;8.07;;;1.90;;
34783;SDS011;20998;51.388;7.032;2023-04-25T08:06:50;9.57;;;2.47;;
34783;SDS011;20998;51.388;7.032;2023-04-25T08:09:17;9.37;;;2.27;;
34783;SDS011;20998;51.388;7.032;2023-04-25T08:11:43;5.43;;;1.93;;
34783;SDS011;20998;51.388;7.032;2023-04-25T08:14:09;5.07;;;1.97;;
34783;SDS011;20998;51.388;7.032;2023-04-25T08:16:35;8.47;;;1.50;;
34783;SDS011;20998;51.388;7.032;2023-04-25T08:19:01;4.97;;;1.83;;
34783;SDS011;20998;51.388;7.032;2023-04-25T08:21:27;13.63;;;1.63;;
34783;SDS011;20998;51.388;7.032;2023-04-25T08:23:53;8.20;;;1.80;;
34783;SDS011;20998;51.388;7.032;2023-04-25T08:26:19;3.23;;;1.33;;
34783;SDS011;20998;51.388;7.032;2023-04-25T08:28:45;6.67;;;1.63;;
34783;SDS011;20998;51.388;7.032;2023-04-25T08:31:11;5.37;;;1.50;;
34783;SDS011;20998;51.388;7.032;2023-04-25T08:33:37;4.60;;;1.10;;
34783;SDS011;20998;51.388;7.032;2023-04-25T08:36:03;6.70;;;1.50;;
34783;SDS011;20998;51.388;7.032;2023-04-25T08:38:29;3.33;;;1.57;;
34783;SDS011;20998;51.388;7.032;2023-04-25T08:40:56;10.03;;;2.07;;
34783;SDS011;20998;51.388;7.032;2023-04-25T08:43:22;4.20;;;2.10;;
34783;SDS011;20998;51.388;7.032;2023-04-25T08:45:48;11.40;;;1.80;;
34783;SDS011;20998;51.388;7.032;2023-04-25T08:48:15;2.57;;;1.30;;
34783;SDS011;20998;51.388;7.032;2023-04-25T08:50:49;3.17;;;1.67;;
34783;SDS011;20998;51.388;7.032;2023-04-25T08:53:16;3.30;;;1.10;;
34783;SDS011;20998;51.388;7.032;2023-04-25T08:55:45;3.77;;;1.20;;
34783;SDS011;20998;51.388;7.032;2023-04-25T08:58:12;5.03;;;1.40;;
34783;SDS011;20998;51.388;7.032;2023-04-25T09:00:38;4.00;;;1.47;;
34783;SDS011;20998;51.388;7.032;2023-04-25T09:03:05;7.27;;;1.93;;
34783;SDS011;20998;51.388;7.032;2023-04-25T09:05:32;6.47;;;1.63;;
34783;SDS011;20998;51.388;7.032;2023-04-25T09:07:58;4.10;;;1.30;;
34783;SDS011;20998;51.388;7.032;2023-04-25T09:10:25;4.23;;;1.20;;
34783;SDS011;20998;51.388;7.032;2023-04-25T09:13:04;5.20;;;1.90;;
34783;SDS011;20998;51.388;7.032;2023-04-25T09:15:48;8.57;;;1.63;;
34783;SDS011;20998;51.388;7.032;2023-04-25T09:20:56;3.97;;;1.00;;
34783;SDS011;20998;51.388;7.032;2023-04-25T09:23:29;8.33;;;1.53;;
34783;SDS011;20998;51.388;7.032;2023-04-25T09:25:55;8.13;;;1.67;;
34783;SDS011;20998;51.388;7.032;2023-04-25T09:28:24;5.47;;;1.27;;
34783;SDS011;20998;51.388;7.032;2023-04-25T09:30:54;8.93;;;1.90;;
34783;SDS011;20998;51.388;7.032;2023-04-25T09:33:26;2.50;;;1.33;;
34783;SDS011;20998;51.388;7.032;2023-04-25T09:35:54;7.90;;;1.60;;
34783;SDS011;20998;51.388;7.032;2023-04-25T09:38:45;4.80;;;1.50;;
34783;SDS011;20998;51.388;7.032;2023-04-25T09:41:11;2.13;;;1.47;;
34783;SDS011;20998;51.388;7.032;2023-04-25T09:43:38;8.43;;;1.67;;
34783;SDS011;20998;51.388;7.032;2023-04-25T09:46:08;7.03;;;1.40;;
34783;SDS011;20998;51.388;7.032;2023-04-25T09:48:34;5.00;;;1.50;;
34783;SDS011;20998;51.388;7.032;2023-04-25T09:53:30;7.63;;;1.80;;
34783;SDS011;20998;51.388;7.032;2023-04-25T09:55:57;3.03;;;1.17;;
34783;SDS011;20998;51.388;7.032;2023-04-25T09:58:25;4.37;;;1.20;;
34783;SDS011;20998;51.388;7.032;2023-04-25T10:00:51;3.90;;;0.70;;
34783;SDS011;20998;51.388;7.032;2023-04-25T10:03:17;3.50;;;1.60;;
34783;SDS011;20998;51.388;7.032;2023-04-25T10:05:47;2.50;;;1.30;;
34783;SDS011;20998;51.388;7.032;2023-04-25T10:08:14;2.30;;;0.83;;
34783;SDS011;20998;51.388;7.032;2023-04-25T10:10:41;5.37;;;1.43;;
34783;SDS011;20998;51.388;7.032;2023-04-25T10:13:08;2.53;;;1.20;;
34783;SDS011;20998;51.388;7.032;2023-04-25T10:15:34;4.20;;;1.50;;
34783;SDS011;20998;51.388;7.032;2023-04-25T10:18:01;7.27;;;1.30;;
34783;SDS011;20998;51.388;7.032;2023-04-25T10:20:27;4.83;;;1.07;;
34783;SDS011;20998;51.388;7.032;2023-04-25T10:22:54;2.67;;;0.97;;
34783;SDS011;20998;51.388;7.032;2023-04-25T10:25:23;11.67;;;1.67;;
34783;SDS011;20998;51.388;7.032;2023-04-25T10:27:53;3.87;;;1.20;;
34783;SDS011;20998;51.388;7.032;2023-04-25T10:30:19;5.67;;;1.30;;
34783;SDS011;20998;51.388;7.032;2023-04-25T10:32:45;3.57;;;0.90;;
34783;SDS011;20998;51.388;7.032;2023-04-25T10:37:58;7.07;;;1.27;;
34783;SDS011;20998;51.388;7.032;2023-04-25T10:40:30;3.37;;;1.10;;
34783;SDS011;20998;51.388;7.032;2023-04-25T10:42:57;4.50;;;1.20;;
34783;SDS011;20998;51.388;7.032;2023-04-25T10:46:02;1.97;;;1.10;;
34783;SDS011;20998;51.388;7.032;2023-04-25T10:48:38;4.57;;;1.27;;
34783;SDS011;20998;51.388;7.032;2023-04-25T10:53:43;1.93;;;1.00;;
34783;SDS011;20998;51.388;7.032;2023-04-25T10:56:48;2.30;;;0.90;;
34783;SDS011;20998;51.388;7.032;2023-04-25T10:59:15;7.30;;;1.00;;
34783;SDS011;20998;51.388;7.032;2023-04-25T11:01:47;4.13;;;1.43;;
34783;SDS011;20998;51.388;7.032;2023-04-25T11:07:13;5.10;;;1.20;;
34783;SDS011;20998;51.388;7.032;2023-04-25T11:09:47;3.47;;;1.37;;
34783;SDS011;20998;51.388;7.032;2023-04-25T11:12:13;4.77;;;1.13;;
34783;SDS011;20998;51.388;7.032;2023-04-25T11:14:39;3.10;;;1.00;;
34783;SDS011;20998;51.388;7.032;2023-04-25T11:17:05;5.63;;;1.50;;
34783;SDS011;20998;51.388;7.032;2023-04-25T11:19:32;5.37;;;1.10;;
34783;SDS011;20998;51.388;7.032;2023-04-25T11:21:59;8.00;;;1.60;;
34783;SDS011;20998;51.388;7.032;2023-04-25T11:24:35;6.13;;;1.37;;
34783;SDS011;20998;51.388;7.032;2023-04-25T11:27:02;7.43;;;1.27;;
34783;SDS011;20998;51.388;7.032;2023-04-25T11:29:31;1.80;;;1.10;;
34783;SDS011;20998;51.388;7.032;2023-04-25T11:31:58;7.30;;;1.40;;
34783;SDS011;20998;51.388;7.032;2023-04-25T11:34:26;3.97;;;1.57;;
34783;SDS011;20998;51.388;7.032;2023-04-25T11:36:52;11.00;;;1.17;;
34783;SDS011;20998;51.388;7.032;2023-04-25T11:39:18;5.03;;;1.47;;
34783;SDS011;20998;51.388;7.032;2023-04-25T11:41:44;2.67;;;1.30;;
34783;SDS011;20998;51.388;7.032;2023-04-25T11:44:11;3.00;;;0.90;;
34783;SDS011;20998;51.388;7.032;2023-04-25T11:46:37;4.57;;;1.07;;
34783;SDS011;20998;51.388;7.032;2023-04-25T11:49:03;3.27;;;1.13;;
34783;SDS011;20998;51.388;7.032;2023-04-25T11:51:37;6.10;;;1.53;;
34783;SDS011;20998;51.388;7.032;2023-04-25T11:54:10;2.73;;;1.20;;
34783;SDS011;20998;51.388;7.032;2023-04-25T11:56:37;7.60;;;1.10;;
34783;SDS011;20998;51.388;7.032;2023-04-25T11:59:04;8.33;;;1.20;;
34783;SDS011;20998;51.388;7.032;2023-04-25T12:01:31;1.00;;;0.90;;
34783;SDS011;20998;51.388;7.032;2023-04-25T12:03:57;2.60;;;1.00;;
34783;SDS011;20998;51.388;7.032;2023-04-25T12:06:29;3.13;;;1.17;;
34783;SDS011;20998;51.388;7.032;2023-04-25T12:09:04;2.10;;;1.07;;
34783;SDS011;20998;51.388;7.032;2023-04-25T12:11:40;1.73;;;1.20;;
34783;SDS011;20998;51.388;7.032;2023-04-25T12:14:32;1.13;;;1.03;;
34783;SDS011;20998;51.388;7.032;2023-04-25T12:17:00;4.10;;;1.40;;
34783;SDS011;20998;51.388;7.032;2023-04-25T12:19:34;4.33;;;1.20;;
34783;SDS011;20998;51.388;7.032;2023-04-25T12:22:01;6.53;;;1.07;;
34783;SDS011;20998;51.388;7.032;2023-04-25T12:24:33;5.73;;;1.40;;
34783;SDS011;20998;51.388;7.032;2023-04-25T12:27:00;4.73;;;2.03;;
34783;SDS011;20998;51.388;7.032;2023-04-25T12:29:26;3.60;;;1.50;;
34783;SDS011;20998;51.388;7.032;2023-04-25T12:31:54;17.33;;;1.60;;
34783;SDS011;20998;51.388;7.032;2023-04-25T12:34:21;5.63;;;1.70;;
34783;SDS011;20998;51.388;7.032;2023-04-25T12:36:47;3.07;;;1.17;;
34783;SDS011;20998;51.388;7.032;2023-04-25T12:39:20;1.97;;;1.03;;
34783;SDS011;20998;51.388;7.032;2023-04-25T12:41:48;1.07;;;1.00;;
34783;SDS011;20998;51.388;7.032;2023-04-25T12:44:14;2.27;;;0.97;;
34783;SDS011;20998;51.388;7.032;2023-04-25T12:46:40;7.00;;;1.30;;
34783;SDS011;20998;51.388;7.032;2023-04-25T12:49:06;1.80;;;0.97;;
34783;SDS011;20998;51.388;7.032;2023-04-25T12:51:33;3.30;;;1.00;;
34783;SDS011;20998;51.388;7.032;2023-04-25T12:54:00;6.73;;;1.30;;
34783;SDS011;20998;51.388;7.032;2023-04-25T12:56:26;12.87;;;1.23;;
34783;SDS011;20998;51.388;7.032;2023-04-25T12:58:52;3.80;;;1.10;;
34783;SDS011;20998;51.388;7.032;2023-04-25T13:01:19;5.10;;;1.27;;
34783;SDS011;20998;51.388;7.032;2023-04-25T13:03:45;13.43;;;1.13;;
34783;SDS011;20998;51.388;7.032;2023-04-25T13:06:12;2.20;;;1.13;;
34783;SDS011;20998;51.388;7.032;2023-04-25T13:08:38;1.93;;;1.00;;
34783;SDS011;20998;51.388;7.032;2023-04-25T13:11:04;2.63;;;1.10;;
34783;SDS011;20998;51.388;7.032;2023-04-25T13:13:31;2.33;;;0.80;;
34783;SDS011;20998;51.388;7.032;2023-04-25T13:15:57;7.83;;;1.43;;
34783;SDS011;20998;51.388;7.032;2023-04-25T13:18:23;2.30;;;1.20;;
34783;SDS011;20998;51.388;7.032;2023-04-25T13:20:52;3.00;;;1.30;;
34783;SDS011;20998;51.388;7.032;2023-04-25T13:23:19;8.63;;;1.57;;
34783;SDS011;20998;51.388;7.032;2023-04-25T13:25:48;2.13;;;1.40;;
34783;SDS011;20998;51.388;7.032;2023-04-25T13:28:14;1.63;;;0.83;;
34783;SDS011;20998;51.388;7.032;2023-04-25T13:30:41;2.63;;;1.13;;
34783;SDS011;20998;51.388;7.032;2023-04-25T13:33:07;5.47;;;1.20;;
34783;SDS011;20998;51.388;7.032;2023-04-25T13:35:33;7.33;;;1.67;;
34783;SDS011;20998;51.388;7.032;2023-04-25T13:38:00;3.03;;;1.10;;
34783;SDS011;20998;51.388;7.032;2023-04-25T13:40:26;1.87;;;1.10;;
34783;SDS011;20998;51.388;7.032;2023-04-25T13:42:52;3.17;;;1.10;;
34783;SDS011;20998;51.388;7.032;2023-04-25T13:45:18;4.53;;;0.93;;
34783;SDS011;20998;51.388;7.032;2023-04-25T13:47:44;2.00;;;1.13;;
34783;SDS011;20998;51.388;7.032;2023-04-25T13:50:10;4.40;;;1.10;;
34783;SDS011;20998;51.388;7.032;2023-04-25T13:52:36;1.37;;;0.73;;
34783;SDS011;20998;51.388;7.032;2023-04-25T13:55:02;2.47;;;1.40;;
34783;SDS011;20998;51.388;7.032;2023-04-25T13:57:30;7.93;;;1.40;;
34783;SDS011;20998;51.388;7.032;2023-04-25T13:59:56;6.10;;;0.83;;
34783;SDS011;20998;51.388;7.032;2023-04-25T14:02:22;3.50;;;1.20;;
34783;SDS011;20998;51.388;7.032;2023-04-25T14:04:47;2.77;;;1.43;;
34783;SDS011;20998;51.388;7.032;2023-04-25T14:07:13;1.17;;;0.90;;
34783;SDS011;20998;51.388;7.032;2023-04-25T14:09:42;7.37;;;1.20;;
34783;SDS011;20998;51.388;7.032;2023-04-25T14:12:09;2.10;;;0.80;;
34783;SDS011;20998;51.388;7.032;2023-04-25T14:14:35;2.27;;;0.80;;
34783;SDS011;20998;51.388;7.032;2023-04-25T14:17:02;5.40;;;0.97;;
34783;SDS011;20998;51.388;7.032;2023-04-25T14:19:28;2.00;;;1.03;;
34783;SDS011;20998;51.388;7.032;2023-04-25T14:21:55;1.97;;;0.90;;
34783;SDS011;20998;51.388;7.032;2023-04-25T14:24:21;3.53;;;1.47;;
34783;SDS011;20998;51.388;7.032;2023-04-25T14:26:47;1.67;;;0.97;;
34783;SDS011;20998;51.388;7.032;2023-04-25T14:29:13;2.20;;;1.07;;
34783;SDS011;20998;51.388;7.032;2023-04-25T14:31:40;2.37;;;0.80;;
34783;SDS011;20998;51.388;7.032;2023-04-25T14:34:06;2.07;;;0.87;;
34783;SDS011;20998;51.388;7.032;2023-04-25T14:36:32;1.33;;;0.83;;
34783;SDS011;20998;51.388;7.032;2023-04-25T14:38:59;3.47;;;1.30;;
34783;SDS011;20998;51.388;7.032;2023-04-25T14:41:25;4.67;;;1.40;;
34783;SDS011;20998;51.388;7.032;2023-04-25T14:43:51;1.50;;;0.70;;
34783;SDS011;20998;51.388;7.032;2023-04-25T14:46:18;4.40;;;1.27;;
34783;SDS011;20998;51.388;7.032;2023-04-25T14:48:44;3.30;;;1.00;;
34783;SDS011;20998;51.388;7.032;2023-04-25T14:51:11;1.07;;;0.90;;
34783;SDS011;20998;51.388;7.032;2023-04-25T14:53:37;5.30;;;1.17;;
34783;SDS011;20998;51.388;7.032;2023-04-25T14:56:03;2.33;;;0.93;;